Blossom Valley (240) Station Data

Red Flag Warning: No
Fire Weather Zone: 250
SDGE Region: Eastern
Lat/Lon: 32.868/-116.843

Observations

Time Wind Speed/Gust Temp(F) RH Fuel Moist Fuel Temp(F) Dewpt(F) Tmax(F) Tmin(F) Accum Precip 10-min Precip SL Press(mb)
4/26 2:50am 36 3 G 4 54° 98% - - 53° 55.9° 53.3° - - -
4/26 2:40am 30 2 G 3 54° 96% - - 53° 55.9° 53.5° - - -
4/26 2:30am 2 1 G 3 55° 90% - - 52° 55.9° 53.5° - - -
4/26 2:20am 34 3 G 4 55° 96% - - 53° 55.9° 53.5° - - -
4/26 2:10am 32 2 G 4 54° 95% - - 53° 55.9° 53.5° - - -
4/26 2:00am 30 2 G 3 54° 93% - - 52° 55.9° 53.5° - - -
4/26 1:50am 40 3 G 4 55° 87% - - 51° 55.9° 53.5° - - -
4/26 1:40am 27 4 G 5 55° 86% - - 51° 55.9° 53.5° - - -
4/26 1:30am 38 3 G 5 54° 98% - - 54° 55.4° 53.5° - - -
4/26 1:20am 49 4 G 5 54° 94% - - 52° 55.4° 53.5° - - -
4/26 1:10am 35 5 G 7 55° 93% - - 53° 55.4° 54.2° - - -
4/26 1:00am 287 2 G 3 45° 91% - - 42° 45.9° 44.6° - - -
4/26 12:50am 51 5 G 7 55° 91% - - 52° 55.4° 54.3° - - -
4/26 12:40am 41 5 G 7 55° 89% - - 52° 55.4° 54.3° - - -
4/26 12:30am 48 5 G 6 55° 88% - - 51° 55.4° 54.3° - - -
4/26 12:20am 40 4 G 5 55° 84% - - 50° 55.4° 54.5° - - -
4/26 12:10am 30 4 G 5 55° 82% - - 50° 55.4° 54.8° - - -
4/26 12:00am 56 4 G 5 55° 80% - - 49° 67° 55.1° - - -
4/25 11:50pm 69 4 G 5 56° 78% - - 49° 67° 55.1° - - -
4/25 11:40pm 66 4 G 7 56° 77% - - 49° 67° 55.2° - - -
4/25 11:30pm 67 5 G 7 56° 76% - - 48° 67° 55.2° - - -
4/25 11:20pm 74 6 G 8 56° 76% - - 49° 67° 55.2° - - -
4/25 11:10pm 73 4 G 7 55° 77% - - 48° 67° 55.2° - - -
4/25 11:00pm 75 6 G 9 56° 74% - - 48° 67° 55.5° - - -
4/25 10:50pm 62 5 G 9 57° 72% - - 48° 67° 55.5° - - -
4/25 10:40pm 58 5 G 7 57° 72% - - 48° 67° 55.5° - - -
4/25 10:30pm 57 4 G 5 57° 72% - - 48° 67° 55.5° - - -
4/25 10:20pm 47 4 G 5 57° 72% - - 48° 67° 55.5° - - -
4/25 10:10pm 42 4 G 5 57° 71% - - 48° 67° 55.5° - - -
4/25 10:00pm 32 3 G 4 57° 70% - - 48° 67° 55.5° - - -
4/25 9:50pm 30 4 G 5 57° 70% - - 48° 67° 55.5° - - -
4/25 9:40pm 33 3 G 4 58° 69% - - 47° 67° 55.5° - - -
4/25 9:30pm 28 2 G 3 58° 68% - - 47° 67° 55.5° - - -
4/25 9:20pm 32 2 G 3 58° 68% - - 47° 67° 55.5° - - -
4/25 9:10pm 28 1 G 3 58° 68% - - 47° 67° 55.5° - - -
4/25 9:00pm 64 1 G 1 58° 68% - - 47° 67° 55.5° - - -
4/25 8:50pm 83 0 G 1 58° 67% - - 47° 67° 55.5° - - -
4/25 8:40pm 50 1 G 2 58° 66% - - 47° 67° 55.5° - - -
4/25 8:30pm 48 1 G 2 58° 66% - - 47° 67° 55.5° - - -
4/25 8:20pm 34 1 G 2 58° 66% - - 47° 67° 55.5° - - -
4/25 8:10pm 214 1 G 5 59° 64% - - 47° 67° 55.5° - - -
4/25 8:00pm 262 3 G 5 59° 64% - - 47° 67° 55.5° - - -
4/25 7:50pm 248 3 G 5 60° 62% - - 47° 67° 55.5° - - -
4/25 7:40pm 232 2 G 5 60° 62% - - 47° 67° 55.5° - - -
4/25 7:30pm 229 2 G 5 60° 62% - - 47° 67° 55.5° - - -
4/25 7:20pm 236 3 G 6 61° 61% - - 47° 67° 55.5° - - -
4/25 7:10pm 255 5 G 10 61° 59% - - 47° 67° 55.5° - - -
4/25 7:00pm 258 5 G 9 62° 58% - - 46° 67° 55.5° - - -
4/25 6:50pm 261 6 G 11 62° 58% - - 47° 67° 55.5° - - -
4/25 6:40pm 255 8 G 14 62° 57% - - 47° 67° 55.5° - - -
4/25 6:30pm 254 8 G 11 62° 57% - - 47° 67° 55.5° - - -
4/25 6:20pm 248 8 G 13 63° 56% - - 47° 67° 55.5° - - -
4/25 6:10pm 246 7 G 11 63° 56% - - 47° 67° 55.5° - - -
4/25 6:00pm 249 7 G 11 63° 57% - - 48° 67° 55.5° - - -
4/25 5:50pm 248 8 G 12 64° 56% - - 47° 67° 55.5° - - -
4/25 5:40pm 253 9 G 14 64° 56% - - 48° 67° 55.5° - - -
4/25 5:30pm 249 9 G 14 64° 58% - - 49° 67° 55.5° - - -
4/25 5:20pm 248 9 G 15 65° 59% - - 50° 67° 55.5° - - -
4/25 5:10pm 245 8 G 15 64° 61% - - 50° 67° 55.5° - - -
4/25 5:00pm 248 7 G 13 64° 61% - - 51° 67° 55.5° - - -
4/25 4:50pm 259 7 G 13 65° 60% - - 50° 67° 55.5° - - -
4/25 4:40pm 245 7 G 13 65° 59% - - 51° 67° 55.5° - - -
4/25 4:30pm 249 8 G 14 65° 60% - - 51° 67° 55.5° - - -
4/25 4:20pm 250 6 G 12 65° 59% - - 50° 67° 55.5° - - -
4/25 4:10pm 260 6 G 11 65° 58% - - 50° 67° 55.5° - - -
4/25 4:00pm 254 8 G 16 65° 58% - - 50° 67° 55.5° - - -
4/25 3:50pm 248 8 G 13 65° 58% - - 50° 67° 55.5° - - -
4/25 3:40pm 229 5 G 12 64° 64% - - 52° 67° 55.5° - - -
4/25 3:30pm 235 6 G 11 64° 65% - - 52° 67° 55.5° - - -
4/25 3:20pm 236 6 G 12 64° 64% - - 52° 67° 55.5° - - -
4/25 3:10pm 229 6 G 12 65° 62% - - 51° 67° 55.5° - - -
4/25 3:00pm 241 7 G 13 66° 58% - - 50° 67° 55.5° - - -
4/25 2:50pm 256 7 G 11 65° 59% - - 50° 67° 55.5° - - -
4/25 2:40pm 256 8 G 15 65° 58% - - 50° 67° 55.5° - - -
4/25 2:30pm 256 9 G 16 66° 58% - - 50° 67° 55.5° - - -
4/25 2:20pm 249 8 G 12 65° 57% - - 50° 67° 55.5° - - -
4/25 2:10pm 243 8 G 14 66° 55% - - 49° 67° 55.5° - - -
4/25 2:00pm 241 7 G 11 65° 56% - - 49° 67° 55.5° - - -
4/25 1:50pm 248 8 G 16 66° 56% - - 50° 67° 55.5° - - -
4/25 1:40pm 248 7 G 11 66° 55% - - 50° 67° 55.5° - - -
4/25 1:30pm 253 7 G 13 66° 55% - - 50° 67° 55.5° - - -
4/25 1:20pm 244 7 G 12 66° 56% - - 49° 66.7° 55.5° - - -
4/25 1:10pm 247 7 G 13 65° 57% - - 49° 66.7° 55.5° - - -
4/25 1:00pm 253 7 G 14 65° 56% - - 49° 66.7° 55.5° - - -
4/25 12:50pm 252 9 G 15 66° 56% - - 49° 66.7° 55.5° - - -
4/25 12:40pm 253 7 G 14 65° 58% - - 50° 66.7° 55.5° - - -
4/25 12:30pm 254 7 G 14 66° 55% - - 49° 66.7° 55.5° - - -
4/25 12:20pm 249 8 G 13 65° 56% - - 49° 65.7° 55.5° - - -
4/25 12:10pm 255 8 G 14 65° 54% - - 48° 65.6° 55.5° - - -
4/25 12:00pm 256 6 G 12 65° 56% - - 49° 65.3° 55.5° - - -
4/25 11:50am 247 7 G 12 65° 56% - - 49° 65.1° 55.5° - - -
4/25 11:40am 255 6 G 13 64° 58% - - 49° 64.8° 55.5° - - -
4/25 11:30am 233 5 G 12 64° 62% - - 51° 64.8° 55.5° - - -
4/25 11:20am 252 6 G 12 64° 61% - - 50° 64.6° 55.5° - - -
4/25 11:10am 254 5 G 12 64° 58% - - 49° 64.5° 55.5° - - -
4/25 11:00am 248 5 G 12 63° 61% - - 50° 64.1° 55.5° - - -
4/25 10:50am 223 4 G 8 63° 62% - - 50° 63.9° 55.5° - - -
4/25 10:40am 249 6 G 12 63° 63% - - 50° 63.5° 55.5° - - -
4/25 10:30am 279 4 G 8 63° 64% - - 50° 63.3° 55.5° - - -
4/25 10:20am 264 4 G 8 61° 71% - - 52° 61.7° 55.5° - - -
4/25 10:10am 263 6 G 11 61° 77% - - 53° 61.5° 55.5° - - -
4/25 10:00am 247 5 G 8 60° 81% - - 55° 61.5° 55.5° - - -
4/25 9:50am 229 4 G 8 59° 83% - - 54° 61.4° 55.5° - - -
4/25 9:40am 252 5 G 12 59° 84% - - 54° 61.4° 55.5° - - -
4/25 9:30am 215 3 G 8 60° 85% - - 56° 61.4° 55.5° - - -
4/25 9:20am 259 4 G 8 59° 94% - - 57° 59.4° 55.5° - - -
4/25 9:10am 260 6 G 10 59° 98% - - 58° 59.4° 55.5° - - -
4/25 9:00am 244 5 G 8 59° 98% - - 58° 59.4° 55.5° - - -
4/25 8:50am 247 5 G 9 59° 94% - - 57° 59.4° 55.5° - - -
4/25 8:40am 246 4 G 8 58° 100% - - 58° 59.3° 55.5° - - -
4/25 8:30am 238 4 G 9 58° 100% - - 58° 58.3° 55.5° - - -
4/25 8:20am 247 4 G 7 58° 100% - - 58° 58.1° 55.5° - - -
4/25 8:10am 242 3 G 7 57° 100% - - 57° 57.9° 55.5° - - -
4/25 8:00am 261 3 G 6 57° 100% - - 57° 57.4° 55.5° - - -
4/25 7:50am 255 4 G 6 57° 100% - - 57° 57.1° 55.5° - - -
4/25 7:40am 260 4 G 6 57° 100% - - 57° 57° 55.5° - - -
4/25 7:30am 229 3 G 5 57° 100% - - 57° 56.9° 55.5° - - -
4/25 7:20am 252 3 G 6 56° 100% - - 56° 56.6° 55.5° - - -
4/25 7:10am 249 3 G 7 56° 100% - - 56° 56.6° 55.5° - - -
4/25 7:00am 240 3 G 5 56° 100% - - 56° 56.6° 55.5° - - -
4/25 6:50am 242 3 G 5 56° 100% - - 56° 56.6° 55.5° - - -
4/25 6:40am 218 2 G 4 56° 100% - - 56° 56.6° 55.5° - - -
4/25 6:30am 253 3 G 5 56° 100% - - 56° 56.6° 55.5° - - -
4/25 6:20am 268 3 G 5 56° 100% - - 56° 56.6° 55.5° - - -
4/25 6:10am 288 2 G 3 56° 100% - - 56° 56.6° 55.5° - - -
4/25 6:00am 289 2 G 4 56° 100% - - 56° 56.6° 55.5° - - -
4/25 5:50am 282 2 G 4 56° 100% - - 56° 56.6° 55.5° - - -
4/25 5:40am 282 1 G 2 56° 100% - - 56° 56.6° 55.5° - - -
4/25 5:30am 291 2 G 4 56° 100% - - 56° 56.6° 55.5° - - -
4/25 5:20am 265 1 G 3 56° 100% - - 56° 56.6° 55.5° - - -
4/25 5:10am 253 1 G 4 56° 100% - - 56° 56.6° 55.5° - - -
4/25 5:00am 289 1 G 3 56° 100% - - 56° 56.6° 55.5° - - -
4/25 4:50am 259 1 G 2 56° 100% - - 56° 56.6° 55.5° - - -
4/25 4:40am 258 1 G 3 56° 100% - - 56° 56.6° 55.5° - - -
4/25 4:30am 254 1 G 2 56° 100% - - 56° 56.6° 55.5° - - -
4/25 4:20am 38 1 G 2 56° 100% - - 56° 56.6° 55.5° - - -
4/25 4:10am 266 1 G 2 56° 100% - - 56° 56.6° 55.5° - - -
4/25 4:00am 211 2 G 4 56° 100% - - 56° 56.6° 55.5° - - -
4/25 3:50am 213 2 G 5 56° 100% - - 56° 56.6° 55.5° - - -
4/25 3:40am 212 3 G 6 56° 100% - - 56° 56.6° 55.5° - - -
4/25 3:30am 173 3 G 7 56° 100% - - 56° 56.6° 55.5° - - -
4/25 3:20am 190 3 G 8 56° 100% - - 56° 56.6° 55.5° - - -
4/25 3:10am 207 3 G 9 56° 100% - - 56° 56.6° 55.5° - - -
4/25 3:00am 235 4 G 7 56° 100% - - 56° 56.6° 55.5° - - -
4/25 2:50am 223 3 G 7 56° 100% - - 56° 56.6° 55.5° - - -
4/25 2:40am 236 3 G 7 56° 100% - - 56° 56.6° 55.5° - - -
4/25 2:30am 222 4 G 9 56° 100% - - 56° 56.6° 55.5° - - -
4/25 2:20am 238 4 G 7 56° 100% - - 56° 56.6° 55.5° - - -
4/25 2:10am 248 4 G 7 56° 100% - - 56° 56.6° 55.5° - - -
4/25 2:00am 227 4 G 8 56° 100% - - 56° 56.6° 55.5° - - -
4/25 1:50am 228 3 G 8 56° 100% - - 56° 56.6° 55.5° - - -
4/25 1:40am 203 3 G 6 56° 100% - - 56° 56.6° 55.5° - - -
4/25 1:30am 196 3 G 6 56° 100% - - 56° 56.6° 55.5° - - -
4/25 1:20am 197 3 G 7 56° 100% - - 56° 56.6° 55.5° - - -
4/25 1:10am 191 2 G 7 56° 100% - - 56° 56.5° 55.5° - - -
4/25 1:00am 187 2 G 6 56° 100% - - 56° 56.3° 55.5° - - -
4/25 12:50am 173 2 G 5 56° 100% - - 56° 56.3° 55.5° - - -
4/25 12:40am 193 3 G 7 56° 100% - - 56° 56.3° 55.5° - - -
4/25 12:30am 175 3 G 7 56° 100% - - 56° 56.3° 55.5° - - -
4/25 12:20am 217 5 G 9 56° 100% - - 56° 56.2° 55.5° - - -
4/25 12:10am 210 6 G 12 56° 100% - - 56° 56.2° 55.6° - - -
4/25 12:00am 222 4 G 8 56° 100% - - 56° 68.9° 54° - - -
4/24 11:50pm 232 4 G 6 56° 100% - - 56° 68.9° 54° - - -
4/24 11:40pm 244 5 G 8 56° 100% - - 56° 68.9° 54° - - -
4/24 11:30pm 248 4 G 8 57° 100% - - 57° 68.9° 54° - - -
4/24 11:20pm 235 3 G 6 57° 100% - - 57° 68.9° 54° - - -
4/24 11:10pm 229 3 G 5 57° 100% - - 57° 68.9° 54° - - -
4/24 11:00pm 203 4 G 9 56° 100% - - 56° 68.9° 54° - - -
4/24 10:50pm 197 4 G 8 56° 100% - - 57° 68.9° 54° - - -
4/24 10:40pm 221 3 G 9 57° 100% - - 57° 68.9° 54° - - -
4/24 10:30pm 213 4 G 7 56° 100% - - 57° 68.9° 54° - - -
4/24 10:20pm 222 4 G 7 57° 100% - - 57° 68.9° 54° - - -
4/24 10:10pm 218 3 G 9 57° 100% - - 57° 68.9° 54° - - -
4/24 10:00pm 230 2 G 6 57° 100% - - 57° 68.9° 54° - - -
4/24 9:50pm 245 2 G 5 57° 100% - - 57° 68.9° 54° - - -
4/24 9:40pm 240 3 G 6 57° 100% - - 57° 68.9° 54° - - -
4/24 9:30pm 248 3 G 6 57° 100% - - 57° 68.9° 54° - - -
4/24 9:20pm 251 3 G 7 57° 100% - - 57° 68.9° 54° - - -
4/24 9:10pm 247 4 G 7 57° 100% - - 57° 68.9° 54° - - -
4/24 9:00pm 235 3 G 6 57° 100% - - 57° 68.9° 54° - - -
4/24 8:50pm 242 4 G 6 57° 100% - - 57° 68.9° 54° - - -
4/24 8:40pm 236 4 G 8 58° 100% - - 58° 68.9° 54° - - -
4/24 8:30pm 242 4 G 7 58° 100% - - 58° 68.9° 54° - - -
4/24 8:20pm 248 5 G 8 58° 100% - - 58° 68.9° 54° - - -
4/24 8:10pm 242 4 G 9 58° 100% - - 58° 68.9° 54° - - -
4/24 8:00pm 233 3 G 5 58° 100% - - 58° 68.9° 54° - - -
4/24 7:50pm 236 4 G 7 59° 100% - - 59° 68.9° 54° - - -
4/24 7:40pm 241 4 G 8 59° 100% - - 59° 68.9° 54° - - -
4/24 7:30pm 239 5 G 9 59° 100% - - 59° 68.9° 54° - - -
4/24 7:20pm 243 4 G 7 60° 100% - - 60° 68.9° 54° - - -
4/24 7:10pm 240 5 G 8 60° 100% - - 60° 68.9° 54° - - -
4/24 7:00pm 242 5 G 9 60° 100% - - 60° 68.9° 54° - - -
4/24 6:50pm 240 4 G 9 60° 100% - - 60° 68.9° 54° - - -
4/24 6:40pm 237 5 G 9 61° 96% - - 60° 68.9° 54° - - -
4/24 6:30pm 235 5 G 9 61° 86% - - 57° 68.9° 54° - - -
4/24 6:20pm 239 5 G 9 62° 83% - - 56° 68.9° 54° - - -
4/24 6:10pm 238 5 G 12 62° 80% - - 56° 68.9° 54° - - -
4/24 6:00pm 222 5 G 9 63° 77% - - 55° 68.9° 54° - - -